sensor_id;sensor_type;location;lat;lon;timestamp;P1;durP1;ratioP1;P2;durP2;ratioP2
6566;SDS011;3317;43.994;22.878;2023-04-25T00:00:25;15.20;;;10.87;;
6566;SDS011;3317;43.994;22.878;2023-04-25T00:02:54;9.30;;;7.90;;
6566;SDS011;3317;43.994;22.878;2023-04-25T00:05:22;10.30;;;8.57;;
6566;SDS011;3317;43.994;22.878;2023-04-25T00:07:49;13.30;;;9.93;;
6566;SDS011;3317;43.994;22.878;2023-04-25T00:10:16;12.77;;;10.37;;
6566;SDS011;3317;43.994;22.878;2023-04-25T00:12:43;7.20;;;6.47;;
6566;SDS011;3317;43.994;22.878;2023-04-25T00:15:11;13.50;;;10.27;;
6566;SDS011;3317;43.994;22.878;2023-04-25T00:17:38;15.40;;;11.50;;
6566;SDS011;3317;43.994;22.878;2023-04-25T00:20:07;14.27;;;10.97;;
6566;SDS011;3317;43.994;22.878;2023-04-25T00:22:35;13.20;;;10.23;;
6566;SDS011;3317;43.994;22.878;2023-04-25T00:25:03;12.33;;;10.67;;
6566;SDS011;3317;43.994;22.878;2023-04-25T00:27:31;12.20;;;10.17;;
6566;SDS011;3317;43.994;22.878;2023-04-25T00:29:58;9.40;;;7.90;;
6566;SDS011;3317;43.994;22.878;2023-04-25T00:32:25;13.67;;;9.93;;
6566;SDS011;3317;43.994;22.878;2023-04-25T00:34:51;10.10;;;9.10;;
6566;SDS011;3317;43.994;22.878;2023-04-25T00:37:22;11.43;;;9.57;;
6566;SDS011;3317;43.994;22.878;2023-04-25T00:39:49;11.60;;;9.80;;
6566;SDS011;3317;43.994;22.878;2023-04-25T00:42:18;15.20;;;10.97;;
6566;SDS011;3317;43.994;22.878;2023-04-25T00:44:45;11.83;;;9.47;;
6566;SDS011;3317;43.994;22.878;2023-04-25T00:47:13;7.27;;;6.40;;
6566;SDS011;3317;43.994;22.878;2023-04-25T00:49:41;6.17;;;5.57;;
6566;SDS011;3317;43.994;22.878;2023-04-25T00:52:08;6.87;;;5.67;;
6566;SDS011;3317;43.994;22.878;2023-04-25T00:54:36;10.23;;;8.83;;
6566;SDS011;3317;43.994;22.878;2023-04-25T00:57:04;18.90;;;13.03;;
6566;SDS011;3317;43.994;22.878;2023-04-25T00:59:31;16.50;;;12.07;;
6566;SDS011;3317;43.994;22.878;2023-04-25T01:01:57;16.80;;;12.20;;
6566;SDS011;3317;43.994;22.878;2023-04-25T01:04:25;16.10;;;12.70;;
6566;SDS011;3317;43.994;22.878;2023-04-25T01:06:53;19.53;;;13.33;;
6566;SDS011;3317;43.994;22.878;2023-04-25T01:09:20;15.90;;;13.07;;
6566;SDS011;3317;43.994;22.878;2023-04-25T01:11:50;15.77;;;12.10;;
6566;SDS011;3317;43.994;22.878;2023-04-25T01:14:17;17.77;;;13.50;;
6566;SDS011;3317;43.994;22.878;2023-04-25T01:16:44;19.20;;;13.37;;
6566;SDS011;3317;43.994;22.878;2023-04-25T01:19:11;18.97;;;14.23;;
6566;SDS011;3317;43.994;22.878;2023-04-25T01:21:44;16.33;;;12.97;;
6566;SDS011;3317;43.994;22.878;2023-04-25T01:24:12;17.50;;;13.50;;
6566;SDS011;3317;43.994;22.878;2023-04-25T01:26:39;14.00;;;11.50;;
6566;SDS011;3317;43.994;22.878;2023-04-25T01:29:09;19.33;;;12.53;;
6566;SDS011;3317;43.994;22.878;2023-04-25T01:31:36;16.60;;;12.70;;
6566;SDS011;3317;43.994;22.878;2023-04-25T01:34:04;17.53;;;12.63;;
6566;SDS011;3317;43.994;22.878;2023-04-25T01:36:31;17.37;;;13.20;;
6566;SDS011;3317;43.994;22.878;2023-04-25T01:39:00;21.07;;;14.10;;
6566;SDS011;3317;43.994;22.878;2023-04-25T01:41:27;20.40;;;14.17;;
6566;SDS011;3317;43.994;22.878;2023-04-25T01:43:54;19.83;;;14.77;;
6566;SDS011;3317;43.994;22.878;2023-04-25T01:46:21;18.27;;;14.40;;
6566;SDS011;3317;43.994;22.878;2023-04-25T01:48:48;18.00;;;14.20;;
6566;SDS011;3317;43.994;22.878;2023-04-25T01:51:15;17.93;;;14.67;;
6566;SDS011;3317;43.994;22.878;2023-04-25T01:53:42;21.87;;;15.00;;
6566;SDS011;3317;43.994;22.878;2023-04-25T01:56:10;19.60;;;14.80;;
6566;SDS011;3317;43.994;22.878;2023-04-25T01:58:37;18.90;;;14.43;;
6566;SDS011;3317;43.994;22.878;2023-04-25T02:01:04;19.10;;;14.40;;
6566;SDS011;3317;43.994;22.878;2023-04-25T02:03:31;19.87;;;13.80;;
6566;SDS011;3317;43.994;22.878;2023-04-25T02:05:58;16.90;;;12.70;;
6566;SDS011;3317;43.994;22.878;2023-04-25T02:08:25;21.07;;;14.40;;
6566;SDS011;3317;43.994;22.878;2023-04-25T02:10:52;19.37;;;13.57;;
6566;SDS011;3317;43.994;22.878;2023-04-25T02:13:21;21.50;;;15.73;;
6566;SDS011;3317;43.994;22.878;2023-04-25T02:15:48;21.83;;;15.30;;
6566;SDS011;3317;43.994;22.878;2023-04-25T02:18:14;19.60;;;14.80;;
6566;SDS011;3317;43.994;22.878;2023-04-25T02:20:42;19.67;;;14.70;;
6566;SDS011;3317;43.994;22.878;2023-04-25T02:23:09;21.97;;;15.10;;
6566;SDS011;3317;43.994;22.878;2023-04-25T02:25:36;20.30;;;14.40;;
6566;SDS011;3317;43.994;22.878;2023-04-25T02:28:03;19.37;;;13.80;;
6566;SDS011;3317;43.994;22.878;2023-04-25T02:30:31;21.07;;;15.73;;
6566;SDS011;3317;43.994;22.878;2023-04-25T02:32:58;21.40;;;14.17;;
6566;SDS011;3317;43.994;22.878;2023-04-25T02:35:25;18.03;;;13.50;;
6566;SDS011;3317;43.994;22.878;2023-04-25T02:37:52;21.87;;;15.80;;
6566;SDS011;3317;43.994;22.878;2023-04-25T02:40:19;19.17;;;14.10;;
6566;SDS011;3317;43.994;22.878;2023-04-25T02:42:46;15.33;;;12.00;;
6566;SDS011;3317;43.994;22.878;2023-04-25T02:45:13;21.43;;;13.90;;
6566;SDS011;3317;43.994;22.878;2023-04-25T02:47:41;20.17;;;14.60;;
6566;SDS011;3317;43.994;22.878;2023-04-25T02:50:08;17.83;;;12.90;;
6566;SDS011;3317;43.994;22.878;2023-04-25T02:52:36;18.73;;;13.50;;
6566;SDS011;3317;43.994;22.878;2023-04-25T02:55:03;18.17;;;13.40;;
6566;SDS011;3317;43.994;22.878;2023-04-25T02:57:30;19.60;;;13.83;;
6566;SDS011;3317;43.994;22.878;2023-04-25T02:59:57;17.47;;;14.00;;
6566;SDS011;3317;43.994;22.878;2023-04-25T03:02:24;17.47;;;13.80;;
6566;SDS011;3317;43.994;22.878;2023-04-25T03:04:52;23.40;;;15.60;;
6566;SDS011;3317;43.994;22.878;2023-04-25T03:07:19;17.60;;;12.40;;
6566;SDS011;3317;43.994;22.878;2023-04-25T03:09:46;11.93;;;9.00;;
6566;SDS011;3317;43.994;22.878;2023-04-25T03:12:13;11.90;;;9.63;;
6566;SDS011;3317;43.994;22.878;2023-04-25T03:14:40;13.97;;;10.77;;
6566;SDS011;3317;43.994;22.878;2023-04-25T03:17:06;19.90;;;15.17;;
6566;SDS011;3317;43.994;22.878;2023-04-25T03:19:33;21.60;;;15.60;;
6566;SDS011;3317;43.994;22.878;2023-04-25T03:22:02;26.10;;;17.47;;
6566;SDS011;3317;43.994;22.878;2023-04-25T03:24:29;20.67;;;14.90;;
6566;SDS011;3317;43.994;22.878;2023-04-25T03:26:55;19.40;;;13.67;;
6566;SDS011;3317;43.994;22.878;2023-04-25T03:29:22;22.00;;;15.03;;
6566;SDS011;3317;43.994;22.878;2023-04-25T03:31:51;20.43;;;14.90;;
6566;SDS011;3317;43.994;22.878;2023-04-25T03:34:18;19.83;;;14.87;;
6566;SDS011;3317;43.994;22.878;2023-04-25T03:36:46;18.70;;;15.20;;
6566;SDS011;3317;43.994;22.878;2023-04-25T03:39:14;16.63;;;13.97;;
6566;SDS011;3317;43.994;22.878;2023-04-25T03:41:41;21.00;;;14.57;;
6566;SDS011;3317;43.994;22.878;2023-04-25T03:44:08;16.70;;;11.00;;
6566;SDS011;3317;43.994;22.878;2023-04-25T03:46:35;21.00;;;15.70;;
6566;SDS011;3317;43.994;22.878;2023-04-25T03:49:02;18.37;;;13.50;;
6566;SDS011;3317;43.994;22.878;2023-04-25T03:51:29;21.40;;;15.17;;
6566;SDS011;3317;43.994;22.878;2023-04-25T03:53:56;17.87;;;12.50;;
6566;SDS011;3317;43.994;22.878;2023-04-25T03:56:24;19.27;;;13.43;;
6566;SDS011;3317;43.994;22.878;2023-04-25T03:58:51;25.30;;;14.40;;
6566;SDS011;3317;43.994;22.878;2023-04-25T04:01:18;19.60;;;14.40;;
6566;SDS011;3317;43.994;22.878;2023-04-25T04:03:45;21.10;;;14.83;;
6566;SDS011;3317;43.994;22.878;2023-04-25T04:06:12;22.30;;;15.67;;
6566;SDS011;3317;43.994;22.878;2023-04-25T04:08:39;28.73;;;19.57;;
6566;SDS011;3317;43.994;22.878;2023-04-25T04:11:06;28.47;;;19.43;;
6566;SDS011;3317;43.994;22.878;2023-04-25T04:13:34;27.47;;;18.73;;
6566;SDS011;3317;43.994;22.878;2023-04-25T04:16:01;31.50;;;20.63;;
6566;SDS011;3317;43.994;22.878;2023-04-25T04:18:29;28.93;;;20.90;;
6566;SDS011;3317;43.994;22.878;2023-04-25T04:20:56;30.60;;;20.80;;
6566;SDS011;3317;43.994;22.878;2023-04-25T04:23:23;31.00;;;18.20;;
6566;SDS011;3317;43.994;22.878;2023-04-25T04:25:52;26.03;;;17.10;;
6566;SDS011;3317;43.994;22.878;2023-04-25T04:28:19;21.70;;;15.17;;
6566;SDS011;3317;43.994;22.878;2023-04-25T04:30:48;22.37;;;16.03;;
6566;SDS011;3317;43.994;22.878;2023-04-25T04:33:16;21.53;;;14.93;;
6566;SDS011;3317;43.994;22.878;2023-04-25T04:35:44;21.80;;;15.77;;
6566;SDS011;3317;43.994;22.878;2023-04-25T04:38:11;18.50;;;14.20;;
6566;SDS011;3317;43.994;22.878;2023-04-25T04:40:40;23.27;;;16.50;;
6566;SDS011;3317;43.994;22.878;2023-04-25T04:43:08;19.30;;;14.53;;
6566;SDS011;3317;43.994;22.878;2023-04-25T04:45:35;20.03;;;14.50;;
6566;SDS011;3317;43.994;22.878;2023-04-25T04:48:05;20.63;;;15.13;;
6566;SDS011;3317;43.994;22.878;2023-04-25T04:50:32;20.00;;;14.50;;
6566;SDS011;3317;43.994;22.878;2023-04-25T04:52:59;16.80;;;13.50;;
6566;SDS011;3317;43.994;22.878;2023-04-25T04:55:26;17.33;;;12.87;;
6566;SDS011;3317;43.994;22.878;2023-04-25T04:57:53;13.23;;;10.53;;
6566;SDS011;3317;43.994;22.878;2023-04-25T05:00:19;13.50;;;10.73;;
6566;SDS011;3317;43.994;22.878;2023-04-25T05:02:47;19.57;;;13.20;;
6566;SDS011;3317;43.994;22.878;2023-04-25T05:05:15;15.10;;;11.77;;
6566;SDS011;3317;43.994;22.878;2023-04-25T05:07:42;12.30;;;10.00;;
6566;SDS011;3317;43.994;22.878;2023-04-25T05:10:09;15.27;;;10.37;;
6566;SDS011;3317;43.994;22.878;2023-04-25T05:12:36;15.03;;;11.50;;
6566;SDS011;3317;43.994;22.878;2023-04-25T05:15:03;13.83;;;10.67;;
6566;SDS011;3317;43.994;22.878;2023-04-25T05:17:31;14.07;;;10.40;;
6566;SDS011;3317;43.994;22.878;2023-04-25T05:20:00;14.07;;;10.27;;
6566;SDS011;3317;43.994;22.878;2023-04-25T05:22:29;13.60;;;10.20;;
6566;SDS011;3317;43.994;22.878;2023-04-25T05:24:56;12.63;;;9.83;;
6566;SDS011;3317;43.994;22.878;2023-04-25T05:27:23;12.87;;;9.50;;
6566;SDS011;3317;43.994;22.878;2023-04-25T05:29:50;13.17;;;9.60;;
6566;SDS011;3317;43.994;22.878;2023-04-25T05:32:17;13.70;;;10.30;;
6566;SDS011;3317;43.994;22.878;2023-04-25T05:34:44;11.77;;;9.73;;
6566;SDS011;3317;43.994;22.878;2023-04-25T05:37:11;11.50;;;9.33;;
6566;SDS011;3317;43.994;22.878;2023-04-25T05:39:39;12.80;;;9.97;;
6566;SDS011;3317;43.994;22.878;2023-04-25T05:42:06;14.57;;;11.53;;
6566;SDS011;3317;43.994;22.878;2023-04-25T05:44:33;16.80;;;12.30;;
6566;SDS011;3317;43.994;22.878;2023-04-25T05:47:00;19.90;;;12.60;;
6566;SDS011;3317;43.994;22.878;2023-04-25T05:49:29;13.50;;;10.40;;
6566;SDS011;3317;43.994;22.878;2023-04-25T05:51:56;12.93;;;9.70;;
6566;SDS011;3317;43.994;22.878;2023-04-25T05:54:23;9.53;;;7.53;;
6566;SDS011;3317;43.994;22.878;2023-04-25T05:56:51;10.37;;;7.77;;
6566;SDS011;3317;43.994;22.878;2023-04-25T05:59:18;10.40;;;7.20;;
6566;SDS011;3317;43.994;22.878;2023-04-25T06:01:45;8.70;;;6.37;;
6566;SDS011;3317;43.994;22.878;2023-04-25T06:04:12;7.57;;;6.17;;
6566;SDS011;3317;43.994;22.878;2023-04-25T06:06:39;7.23;;;6.30;;
6566;SDS011;3317;43.994;22.878;2023-04-25T06:09:05;11.60;;;6.00;;
6566;SDS011;3317;43.994;22.878;2023-04-25T06:11:33;8.07;;;5.40;;
6566;SDS011;3317;43.994;22.878;2023-04-25T06:14:01;5.97;;;4.37;;
6566;SDS011;3317;43.994;22.878;2023-04-25T06:16:28;9.70;;;5.50;;
6566;SDS011;3317;43.994;22.878;2023-04-25T06:18:55;6.67;;;4.77;;
6566;SDS011;3317;43.994;22.878;2023-04-25T06:21:22;5.87;;;4.00;;
6566;SDS011;3317;43.994;22.878;2023-04-25T06:23:49;9.70;;;4.63;;
6566;SDS011;3317;43.994;22.878;2023-04-25T06:26:16;7.50;;;4.93;;
6566;SDS011;3317;43.994;22.878;2023-04-25T06:28:43;5.53;;;4.70;;
6566;SDS011;3317;43.994;22.878;2023-04-25T06:31:11;6.30;;;4.83;;
6566;SDS011;3317;43.994;22.878;2023-04-25T06:33:38;9.40;;;4.73;;
6566;SDS011;3317;43.994;22.878;2023-04-25T06:36:05;7.00;;;4.30;;
6566;SDS011;3317;43.994;22.878;2023-04-25T06:38:32;5.10;;;4.07;;
6566;SDS011;3317;43.994;22.878;2023-04-25T06:40:59;4.60;;;3.97;;
6566;SDS011;3317;43.994;22.878;2023-04-25T06:43:26;8.00;;;4.77;;
6566;SDS011;3317;43.994;22.878;2023-04-25T06:45:53;6.20;;;4.37;;
6566;SDS011;3317;43.994;22.878;2023-04-25T06:48:21;9.43;;;3.07;;
6566;SDS011;3317;43.994;22.878;2023-04-25T06:50:48;6.97;;;4.80;;
6566;SDS011;3317;43.994;22.878;2023-04-25T06:53:15;3.63;;;3.20;;
6566;SDS011;3317;43.994;22.878;2023-04-25T06:55:42;6.30;;;4.87;;
6566;SDS011;3317;43.994;22.878;2023-04-25T06:58:10;4.07;;;3.57;;
6566;SDS011;3317;43.994;22.878;2023-04-25T07:00:37;6.97;;;3.40;;
6566;SDS011;3317;43.994;22.878;2023-04-25T07:03:04;9.03;;;3.70;;
6566;SDS011;3317;43.994;22.878;2023-04-25T07:05:32;8.13;;;3.77;;
6566;SDS011;3317;43.994;22.878;2023-04-25T07:07:59;5.50;;;3.23;;
6566;SDS011;3317;43.994;22.878;2023-04-25T07:10:26;8.10;;;3.60;;
6566;SDS011;3317;43.994;22.878;2023-04-25T07:12:53;4.30;;;2.67;;
6566;SDS011;3317;43.994;22.878;2023-04-25T07:15:19;9.93;;;3.23;;
6566;SDS011;3317;43.994;22.878;2023-04-25T07:17:46;6.80;;;2.83;;
6566;SDS011;3317;43.994;22.878;2023-04-25T07:20:14;3.50;;;2.10;;
6566;SDS011;3317;43.994;22.878;2023-04-25T07:22:42;5.03;;;2.43;;
6566;SDS011;3317;43.994;22.878;2023-04-25T07:25:09;4.40;;;2.70;;
6566;SDS011;3317;43.994;22.878;2023-04-25T07:27:36;11.40;;;4.57;;
6566;SDS011;3317;43.994;22.878;2023-04-25T07:30:04;4.27;;;2.40;;
6566;SDS011;3317;43.994;22.878;2023-04-25T07:32:32;3.10;;;2.00;;
6566;SDS011;3317;43.994;22.878;2023-04-25T07:34:59;3.27;;;2.47;;
6566;SDS011;3317;43.994;22.878;2023-04-25T07:37:26;8.10;;;2.73;;
6566;SDS011;3317;43.994;22.878;2023-04-25T07:39:55;7.53;;;2.37;;
6566;SDS011;3317;43.994;22.878;2023-04-25T07:42:22;3.90;;;2.27;;
6566;SDS011;3317;43.994;22.878;2023-04-25T07:44:48;5.63;;;3.13;;
6566;SDS011;3317;43.994;22.878;2023-04-25T07:47:16;3.60;;;2.90;;
6566;SDS011;3317;43.994;22.878;2023-04-25T07:49:45;3.17;;;2.20;;
6566;SDS011;3317;43.994;22.878;2023-04-25T07:52:12;6.97;;;2.13;;
6566;SDS011;3317;43.994;22.878;2023-04-25T07:54:39;4.53;;;1.93;;
6566;SDS011;3317;43.994;22.878;2023-04-25T07:57:08;3.60;;;1.80;;
6566;SDS011;3317;43.994;22.878;2023-04-25T07:59:35;2.03;;;1.70;;
6566;SDS011;3317;43.994;22.878;2023-04-25T08:02:02;2.70;;;1.73;;
6566;SDS011;3317;43.994;22.878;2023-04-25T08:04:32;2.33;;;1.60;;
6566;SDS011;3317;43.994;22.878;2023-04-25T08:06:59;3.70;;;1.63;;
6566;SDS011;3317;43.994;22.878;2023-04-25T08:09:26;3.47;;;1.57;;
6566;SDS011;3317;43.994;22.878;2023-04-25T08:11:54;2.03;;;1.30;;
6566;SDS011;3317;43.994;22.878;2023-04-25T08:14:22;3.70;;;1.77;;
6566;SDS011;3317;43.994;22.878;2023-04-25T08:16:49;2.70;;;1.40;;
6566;SDS011;3317;43.994;22.878;2023-04-25T08:19:16;4.87;;;1.70;;
6566;SDS011;3317;43.994;22.878;2023-04-25T08:21:43;2.40;;;1.43;;
6566;SDS011;3317;43.994;22.878;2023-04-25T08:24:10;3.00;;;1.47;;
6566;SDS011;3317;43.994;22.878;2023-04-25T08:26:37;2.23;;;1.30;;
6566;SDS011;3317;43.994;22.878;2023-04-25T08:29:04;2.17;;;1.30;;
6566;SDS011;3317;43.994;22.878;2023-04-25T08:34:15;2.17;;;1.50;;
6566;SDS011;3317;43.994;22.878;2023-04-25T08:36:42;2.33;;;1.40;;
6566;SDS011;3317;43.994;22.878;2023-04-25T08:39:09;2.67;;;1.60;;
6566;SDS011;3317;43.994;22.878;2023-04-25T08:41:38;2.23;;;1.27;;
6566;SDS011;3317;43.994;22.878;2023-04-25T08:44:06;3.60;;;1.83;;
6566;SDS011;3317;43.994;22.878;2023-04-25T08:46:37;6.67;;;1.90;;
6566;SDS011;3317;43.994;22.878;2023-04-25T08:49:07;2.13;;;1.47;;
6566;SDS011;3317;43.994;22.878;2023-04-25T08:51:36;1.70;;;1.40;;
6566;SDS011;3317;43.994;22.878;2023-04-25T08:54:09;5.13;;;1.30;;
6566;SDS011;3317;43.994;22.878;2023-04-25T08:56:37;3.53;;;1.90;;
6566;SDS011;3317;43.994;22.878;2023-04-25T08:59:06;6.33;;;1.83;;
6566;SDS011;3317;43.994;22.878;2023-04-25T09:01:34;3.20;;;1.50;;
6566;SDS011;3317;43.994;22.878;2023-04-25T09:04:01;2.80;;;1.40;;
6566;SDS011;3317;43.994;22.878;2023-04-25T09:06:30;1.50;;;1.40;;
6566;SDS011;3317;43.994;22.878;2023-04-25T09:09:01;5.03;;;1.67;;
6566;SDS011;3317;43.994;22.878;2023-04-25T09:11:30;3.37;;;1.50;;
6566;SDS011;3317;43.994;22.878;2023-04-25T09:14:10;3.60;;;2.17;;
6566;SDS011;3317;43.994;22.878;2023-04-25T09:16:52;3.23;;;2.37;;
6566;SDS011;3317;43.994;22.878;2023-04-25T09:19:26;6.30;;;2.13;;
6566;SDS011;3317;43.994;22.878;2023-04-25T09:21:55;8.33;;;2.43;;
6566;SDS011;3317;43.994;22.878;2023-04-25T09:24:33;8.83;;;2.30;;
6566;SDS011;3317;43.994;22.878;2023-04-25T09:27:03;2.73;;;2.10;;
6566;SDS011;3317;43.994;22.878;2023-04-25T09:29:33;2.37;;;2.00;;
6566;SDS011;3317;43.994;22.878;2023-04-25T09:32:11;3.20;;;1.97;;
6566;SDS011;3317;43.994;22.878;2023-04-25T09:34:42;4.40;;;1.80;;
6566;SDS011;3317;43.994;22.878;2023-04-25T09:37:16;8.23;;;2.30;;
6566;SDS011;3317;43.994;22.878;2023-04-25T09:39:45;2.73;;;1.80;;
6566;SDS011;3317;43.994;22.878;2023-04-25T09:42:13;1.90;;;1.70;;
6566;SDS011;3317;43.994;22.878;2023-04-25T09:44:44;6.43;;;2.30;;
6566;SDS011;3317;43.994;22.878;2023-04-25T09:47:12;5.17;;;2.23;;
6566;SDS011;3317;43.994;22.878;2023-04-25T09:49:41;2.27;;;2.00;;
6566;SDS011;3317;43.994;22.878;2023-04-25T09:52:09;5.63;;;2.47;;
6566;SDS011;3317;43.994;22.878;2023-04-25T09:54:42;4.10;;;2.00;;
6566;SDS011;3317;43.994;22.878;2023-04-25T09:57:12;9.07;;;2.00;;
6566;SDS011;3317;43.994;22.878;2023-04-25T09:59:43;2.00;;;1.60;;
6566;SDS011;3317;43.994;22.878;2023-04-25T10:02:11;1.40;;;1.30;;
6566;SDS011;3317;43.994;22.878;2023-04-25T10:04:39;2.57;;;1.73;;
6566;SDS011;3317;43.994;22.878;2023-04-25T10:07:07;4.40;;;1.53;;
6566;SDS011;3317;43.994;22.878;2023-04-25T10:09:38;1.97;;;1.47;;
6566;SDS011;3317;43.994;22.878;2023-04-25T10:12:06;2.83;;;1.70;;
6566;SDS011;3317;43.994;22.878;2023-04-25T10:14:33;1.73;;;1.40;;
6566;SDS011;3317;43.994;22.878;2023-04-25T10:17:00;1.50;;;1.40;;
6566;SDS011;3317;43.994;22.878;2023-04-25T10:19:28;2.80;;;1.70;;
6566;SDS011;3317;43.994;22.878;2023-04-25T10:21:56;4.20;;;2.57;;
6566;SDS011;3317;43.994;22.878;2023-04-25T10:24:30;4.10;;;2.00;;
6566;SDS011;3317;43.994;22.878;2023-04-25T10:26:58;4.60;;;1.93;;
6566;SDS011;3317;43.994;22.878;2023-04-25T10:29:26;3.00;;;2.07;;
6566;SDS011;3317;43.994;22.878;2023-04-25T10:31:54;3.00;;;1.90;;
6566;SDS011;3317;43.994;22.878;2023-04-25T10:34:23;4.97;;;2.20;;
6566;SDS011;3317;43.994;22.878;2023-04-25T10:37:04;6.30;;;2.70;;
6566;SDS011;3317;43.994;22.878;2023-04-25T10:39:34;5.13;;;2.40;;
6566;SDS011;3317;43.994;22.878;2023-04-25T10:42:03;5.17;;;2.70;;
6566;SDS011;3317;43.994;22.878;2023-04-25T10:44:30;5.13;;;2.80;;
6566;SDS011;3317;43.994;22.878;2023-04-25T10:46:58;4.43;;;2.80;;
6566;SDS011;3317;43.994;22.878;2023-04-25T10:49:29;4.20;;;2.20;;
6566;SDS011;3317;43.994;22.878;2023-04-25T10:52:16;2.80;;;1.80;;
6566;SDS011;3317;43.994;22.878;2023-04-25T10:54:51;2.20;;;1.80;;
6566;SDS011;3317;43.994;22.878;2023-04-25T10:57:30;1.90;;;1.60;;
6566;SDS011;3317;43.994;22.878;2023-04-25T11:00:07;3.23;;;1.57;;
6566;SDS011;3317;43.994;22.878;2023-04-25T11:02:37;1.90;;;1.53;;
6566;SDS011;3317;43.994;22.878;2023-04-25T11:05:07;1.63;;;1.53;;
6566;SDS011;3317;43.994;22.878;2023-04-25T11:07:37;6.73;;;1.97;;
6566;SDS011;3317;43.994;22.878;2023-04-25T11:10:10;3.33;;;2.17;;
6566;SDS011;3317;43.994;22.878;2023-04-25T11:12:38;2.23;;;1.80;;
6566;SDS011;3317;43.994;22.878;2023-04-25T11:15:08;6.80;;;2.20;;
6566;SDS011;3317;43.994;22.878;2023-04-25T11:17:35;3.13;;;2.13;;
6566;SDS011;3317;43.994;22.878;2023-04-25T11:20:02;3.60;;;2.43;;
6566;SDS011;3317;43.994;22.878;2023-04-25T11:22:33;3.37;;;1.90;;
6566;SDS011;3317;43.994;22.878;2023-04-25T11:25:04;2.60;;;1.73;;
6566;SDS011;3317;43.994;22.878;2023-04-25T11:27:32;2.67;;;2.00;;
6566;SDS011;3317;43.994;22.878;2023-04-25T11:30:10;2.10;;;1.90;;
6566;SDS011;3317;43.994;22.878;2023-04-25T11:32:39;2.53;;;1.93;;
6566;SDS011;3317;43.994;22.878;2023-04-25T11:35:07;2.73;;;1.60;;
6566;SDS011;3317;43.994;22.878;2023-04-25T11:37:34;1.93;;;1.43;;
6566;SDS011;3317;43.994;22.878;2023-04-25T11:40:02;7.10;;;1.60;;
6566;SDS011;3317;43.994;22.878;2023-04-25T11:42:31;2.83;;;1.40;;
6566;SDS011;3317;43.994;22.878;2023-04-25T11:44:58;3.27;;;1.63;;
6566;SDS011;3317;43.994;22.878;2023-04-25T11:47:29;1.67;;;1.23;;
6566;SDS011;3317;43.994;22.878;2023-04-25T11:49:57;2.23;;;1.60;;
6566;SDS011;3317;43.994;22.878;2023-04-25T11:52:24;1.50;;;1.40;;
6566;SDS011;3317;43.994;22.878;2023-04-25T11:54:51;1.80;;;1.60;;
6566;SDS011;3317;43.994;22.878;2023-04-25T11:57:18;2.20;;;1.80;;
6566;SDS011;3317;43.994;22.878;2023-04-25T11:59:46;3.53;;;1.90;;
6566;SDS011;3317;43.994;22.878;2023-04-25T12:02:23;2.20;;;1.70;;
6566;SDS011;3317;43.994;22.878;2023-04-25T12:04:53;6.30;;;2.50;;
6566;SDS011;3317;43.994;22.878;2023-04-25T12:07:20;2.67;;;2.30;;
6566;SDS011;3317;43.994;22.878;2023-04-25T12:09:51;3.50;;;2.40;;
6566;SDS011;3317;43.994;22.878;2023-04-25T12:12:19;2.77;;;2.47;;
6566;SDS011;3317;43.994;22.878;2023-04-25T12:14:46;2.10;;;1.83;;
6566;SDS011;3317;43.994;22.878;2023-04-25T12:17:14;3.97;;;2.27;;
6566;SDS011;3317;43.994;22.878;2023-04-25T12:19:41;4.60;;;2.00;;
6566;SDS011;3317;43.994;22.878;2023-04-25T12:22:20;2.50;;;2.00;;
6566;SDS011;3317;43.994;22.878;2023-04-25T12:24:47;4.10;;;2.00;;
6566;SDS011;3317;43.994;22.878;2023-04-25T12:27:15;5.50;;;2.50;;
6566;SDS011;3317;43.994;22.878;2023-04-25T12:29:50;2.60;;;2.40;;
6566;SDS011;3317;43.994;22.878;2023-04-25T12:32:17;3.30;;;2.63;;
6566;SDS011;3317;43.994;22.878;2023-04-25T12:34:44;4.43;;;3.03;;
6566;SDS011;3317;43.994;22.878;2023-04-25T12:37:12;6.53;;;3.70;;
6566;SDS011;3317;43.994;22.878;2023-04-25T12:39:40;5.53;;;3.10;;
6566;SDS011;3317;43.994;22.878;2023-04-25T12:42:07;3.70;;;3.07;;
6566;SDS011;3317;43.994;22.878;2023-04-25T12:44:36;5.53;;;2.40;;
6566;SDS011;3317;43.994;22.878;2023-04-25T12:47:03;2.70;;;2.50;;
6566;SDS011;3317;43.994;22.878;2023-04-25T12:49:31;3.97;;;2.60;;
6566;SDS011;3317;43.994;22.878;2023-04-25T12:51:58;5.13;;;2.60;;
6566;SDS011;3317;43.994;22.878;2023-04-25T12:54:25;3.30;;;2.70;;
6566;SDS011;3317;43.994;22.878;2023-04-25T12:56:53;5.47;;;2.97;;
6566;SDS011;3317;43.994;22.878;2023-04-25T12:59:20;5.67;;;2.63;;
6566;SDS011;3317;43.994;22.878;2023-04-25T13:01:47;6.73;;;3.07;;
6566;SDS011;3317;43.994;22.878;2023-04-25T13:04:14;4.27;;;3.03;;
6566;SDS011;3317;43.994;22.878;2023-04-25T13:06:41;3.83;;;3.30;;
6566;SDS011;3317;43.994;22.878;2023-04-25T13:09:08;3.33;;;2.90;;
6566;SDS011;3317;43.994;22.878;2023-04-25T13:11:37;5.37;;;3.07;;
6566;SDS011;3317;43.994;22.878;2023-04-25T13:14:05;8.23;;;5.40;;
6566;SDS011;3317;43.994;22.878;2023-04-25T13:16:33;18.67;;;6.00;;
6566;SDS011;3317;43.994;22.878;2023-04-25T13:19:00;5.03;;;4.00;;
6566;SDS011;3317;43.994;22.878;2023-04-25T13:21:29;4.10;;;3.70;;
6566;SDS011;3317;43.994;22.878;2023-04-25T13:23:57;4.93;;;3.70;;
6566;SDS011;3317;43.994;22.878;2023-04-25T13:26:24;7.83;;;3.90;;
6566;SDS011;3317;43.994;22.878;2023-04-25T13:28:52;5.37;;;4.30;;
6566;SDS011;3317;43.994;22.878;2023-04-25T13:31:20;6.03;;;5.37;;
6566;SDS011;3317;43.994;22.878;2023-04-25T13:33:47;5.30;;;3.50;;
6566;SDS011;3317;43.994;22.878;2023-04-25T13:36:14;3.43;;;2.70;;
6566;SDS011;3317;43.994;22.878;2023-04-25T13:38:48;8.13;;;3.40;;
6566;SDS011;3317;43.994;22.878;2023-04-25T13:41:15;3.20;;;2.90;;
6566;SDS011;3317;43.994;22.878;2023-04-25T13:43:44;3.70;;;2.80;;
6566;SDS011;3317;43.994;22.878;2023-04-25T13:46:12;3.60;;;2.50;;
6566;SDS011;3317;43.994;22.878;2023-04-25T13:48:42;3.97;;;2.30;;
6566;SDS011;3317;43.994;22.878;2023-04-25T13:51:13;3.53;;;2.40;;
6566;SDS011;3317;43.994;22.878;2023-04-25T13:53:42;3.30;;;2.77;;
6566;SDS011;3317;43.994;22.878;2023-04-25T13:56:09;2.63;;;2.23;;
6566;SDS011;3317;43.994;22.878;2023-04-25T13:58:38;3.47;;;2.40;;
6566;SDS011;3317;43.994;22.878;2023-04-25T14:01:05;3.80;;;3.00;;
6566;SDS011;3317;43.994;22.878;2023-04-25T14:03:32;4.97;;;3.10;;
6566;SDS011;3317;43.994;22.878;2023-04-25T14:06:00;4.83;;;3.43;;
6566;SDS011;3317;43.994;22.878;2023-04-25T14:08:27;4.37;;;3.30;;
6566;SDS011;3317;43.994;22.878;2023-04-25T14:10:56;5.13;;;4.10;;
6566;SDS011;3317;43.994;22.878;2023-04-25T14:13:23;6.93;;;4.60;;
6566;SDS011;3317;43.994;22.878;2023-04-25T14:15:50;8.00;;;4.80;;
6566;SDS011;3317;43.994;22.878;2023-04-25T14:18:17;9.17;;;4.97;;
6566;SDS011;3317;43.994;22.878;2023-04-25T14:20:44;8.40;;;5.30;;
6566;SDS011;3317;43.994;22.878;2023-04-25T14:23:12;7.77;;;5.63;;
6566;SDS011;3317;43.994;22.878;2023-04-25T14:25:39;9.60;;;5.90;;
6566;SDS011;3317;43.994;22.878;2023-04-25T14:28:07;7.60;;;6.17;;
6566;SDS011;3317;43.994;22.878;2023-04-25T14:30:34;8.30;;;6.97;;
6566;SDS011;3317;43.994;22.878;2023-04-25T14:33:00;6.03;;;5.23;;
6566;SDS011;3317;43.994;22.878;2023-04-25T14:35:27;6.90;;;5.07;;
6566;SDS011;3317;43.994;22.878;2023-04-25T14:37:54;7.30;;;5.53;;
6566;SDS011;3317;43.994;22.878;2023-04-25T14:40:23;6.63;;;5.53;;
6566;SDS011;3317;43.994;22.878;2023-04-25T14:42:51;10.40;;;6.00;;
6566;SDS011;3317;43.994;22.878;2023-04-25T14:45:18;9.50;;;6.70;;
6566;SDS011;3317;43.994;22.878;2023-04-25T14:47:45;7.77;;;5.97;;
6566;SDS011;3317;43.994;22.878;2023-04-25T14:50:12;13.67;;;7.13;;
6566;SDS011;3317;43.994;22.878;2023-04-25T14:52:39;8.77;;;7.10;;
6566;SDS011;3317;43.994;22.878;2023-04-25T14:55:06;10.40;;;6.83;;
6566;SDS011;3317;43.994;22.878;2023-04-25T14:57:35;9.33;;;7.57;;